Date,TemperatureHighF,TemperatureAvgF,TemperatureLowF,DewpointHighF,DewpointAvgF,DewpointLowF,HumidityHigh,HumidityAvg,HumidityLow,PressureMaxIn,PressureMinIn,WindSpeedMaxMPH,WindSpeedAvgMPH,GustSpeedMaxMPH,PrecipitationSumIn
2013-5-1,82.8,73.8,64.0,57.6,53.2,45.0,74,51,29,29.97,29.80,21,1,21,188.55
2013-5-2,70.9,60.7,46.4,57.1,52.1,42.9,97,74,58,30.06,29.94,24,2,24,9.74
2013-5-3,59.6,50.2,42.8,59.6,50.1,42.2,100,100,97,29.99,29.72,54,0,54,103.89
2013-5-4,64.7,58.7,53.9,61.0,56.8,53.3,100,94,73,29.91,29.73,33,0,33,146.39
2013-5-5,74.6,60.8,51.6,57.3,52.1,42.7,100,77,35,29.91,29.79,3,0,3,44.09
2013-5-6,76.8,65.0,53.6,52.0,45.6,36.1,92,55,27,29.90,29.82,20,0,20,122.54
2013-5-7,79.8,66.3,49.8,48.4,40.4,30.6,74,43,18,29.92,29.84,10,0,10,139.38
2013-5-8,82.6,68.9,52.3,54.5,47.9,40.8,88,51,25,29.91,29.83,11,0,11,136.23
2013-5-9,72.1,63.5,60.7,63.4,59.9,53.9,100,89,59,29.85,29.68,12,0,12,88.26
2013-5-10,62.3,53.4,48.5,62.3,51.6,46.2,100,94,87,29.88,29.68,1,0,1,251.63
2013-5-11,60.5,52.1,43.2,51.8,38.2,24.2,97,64,31,30.00,29.80,50,1,50,169.06
2013-5-12,56.5,47.1,34.4,32.4,27.7,21.5,81,49,27,30.08,30.00,11,0,11,116.09
2013-5-13,68.3,55.1,36.3,40.1,33.5,26.8,84,49,26,30.09,29.88,21,0,21,109.62
2013-5-14,88.4,72.8,55.9,62.1,52.7,37.6,69,51,37,29.88,29.56,22,0,22,0.00
2013-5-15,81.2,74.4,65.3,59.9,55.3,46.4,66,52,34,29.73,29.58,8,0,8,0.00
2013-5-16,83.0,72.0,60.4,61.9,54.2,46.0,81,56,31,29.81,29.71,13,0,13,58.13
2013-5-17,79.8,70.7,60.9,65.7,59.7,54.9,98,70,43,29.86,29.79,18,0,18,57.58
2013-5-18,80.3,70.9,63.4,68.5,64.0,60.9,100,81,53,29.90,29.77,86,0,86,92.78
2013-5-19,87.2,76.4,64.8,69.8,66.7,62.3,94,73,53,29.79,29.58,111,1,119,100.35
2013-5-20,81.6,73.8,62.4,68.6,62.3,58.9,97,69,47,29.70,29.55,69,2,69,29.95
2013-5-21,79.8,70.7,62.6,64.3,61.5,59.3,97,75,51,29.60,29.52,14,1,28,58.72
2013-5-22,71.5,65.4,59.0,63.0,57.7,54.3,96,77,58,29.68,29.51,18,0,18,131.34
2013-5-23,61.3,57.0,49.9,57.3,52.9,47.1,100,87,69,30.15,29.68,11,0,11,192.83
2013-5-24,64.7,53.4,38.6,47.3,40.7,34.3,93,65,38,30.33,30.15,14,0,14,45.62
2013-5-25,52.9,49.7,46.1,51.2,44.1,30.4,100,83,47,30.30,30.13,13,0,13,78.89
2013-5-26,62.7,55.0,49.1,59.2,53.6,47.1,100,95,84,30.17,29.94,6,0,6,129.23
2013-5-27,69.4,62.9,58.0,67.1,62.3,57.5,100,98,89,29.93,29.67,0,0,0,13.60
2013-5-28,77.4,69.5,65.3,71.2,66.2,62.0,99,90,74,29.75,29.60,25,0,25,2.29
2013-5-29,84.0,73.6,61.5,70.5,65.5,61.1,100,78,57,29.83,29.68,20,0,20,27.40
2013-5-30,82.8,73.0,62.1,70.0,65.8,59.9,100,79,61,29.75,29.61,28,1,28,18.54
2013-5-31,73.3,67.9,62.4,72.1,65.8,61.2,100,94,78,29.74,29.58,7,0,7,0.61